This is the latest recevied weather packets stored in our database for station/object TG5ALY-16. If no packets are shown the sender has not sent any weather packets the latest 10 day(s).
| Time | Temp. | Humidity | Pressure | Rain* | Wind** | Luminosity | Snow |
|---|---|---|---|---|---|---|---|
| 1777955827 | 13.33° C | 86% | 1019 hPa | 0 mm | - | - | - |
| 1777955226 | 13.33° C | 86% | 1019 hPa | 0 mm | - | - | - |
| 1777954626 | 13.89° C | 85% | 1019 hPa | 0 mm | - | - | - |
| 1777954025 | 13.89° C | 86% | 1020 hPa | 0 mm | - | - | - |
| 1777953424 | 13.89° C | 86% | 1020 hPa | 0 mm | - | - | - |
| 1777947023 | 15.56° C | 81% | 1018 hPa | 0 mm | - | - | - |
| 1777946422 | 15.56° C | 81% | 1018 hPa | 0 mm | - | - | - |
| 1777945821 | 15.56° C | 81% | 1018 hPa | 0 mm | - | - | - |
| 1777945221 | 15.56° C | 82% | 1018 hPa | 0 mm | - | - | - |
| 1777944620 | 15.56° C | 84% | 1018 hPa | 0 mm | - | - | - |
| 1777944019 | 15.56° C | 84% | 1017 hPa | 0 mm | - | - | - |
| 1777943419 | 15.56° C | 83% | 1017 hPa | 0 mm | - | - | - |
| 1777942818 | 15.56° C | 82% | 1017 hPa | 0 mm | - | - | - |
| 1777942218 | 16.11° C | 77% | 1017 hPa | 0 mm | - | - | - |
| 1777941617 | 16.11° C | 78% | 1017 hPa | 0 mm | - | - | - |
| 1777941016 | 16.67° C | 80% | 1016 hPa | 0 mm | - | - | - |
| 1777940415 | 16.67° C | 80% | 1015 hPa | 0 mm | - | - | - |
| 1777939815 | 17.22° C | 77% | 1015 hPa | 0 mm | - | - | - |
| 1777939214 | 17.22° C | 76% | 1015 hPa | 0 mm | - | - | - |
| 1777938613 | 17.78° C | 73% | 1015 hPa | 0 mm | - | - | - |
| 1777938013 | 17.78° C | 73% | 1015 hPa | 0 mm | - | - | - |
| 1777937412 | 17.78° C | 72% | 1015 hPa | 0 mm | - | - | - |
| 1777936812 | 17.78° C | 72% | 1014 hPa | 0 mm | - | - | - |
| 1777936211 | 18.33° C | 70% | 1014 hPa | 0 mm | - | - | - |
| 1777935610 | 18.33° C | 70% | 1014 hPa | 0 mm | - | - | - |
* Rain latest hour (hover to see other rain measurements)
** Current wind speed in m/s (hover to see current wind gust speed)